sensor_id;sensor_type;location;lat;lon;timestamp;pressure;altitude;pressure_sealevel;temperature;humidity
38806;BME280;25635;51.146;17.162;2023-04-26T01:01:47;99753.17;;;2.50;75.30
38806;BME280;25635;51.146;17.162;2023-04-26T01:09:14;99752.93;;;2.46;75.28
38806;BME280;25635;51.146;17.162;2023-04-26T01:25:53;99768.59;;;2.36;75.75
38806;BME280;25635;51.146;17.162;2023-04-26T03:56:17;99837.45;;;1.63;79.39
38806;BME280;25635;51.146;17.162;2023-04-26T04:47:03;99879.21;;;2.44;79.83
38806;BME280;25635;51.146;17.162;2023-04-26T05:51:34;99914.05;;;4.54;75.63
38806;BME280;25635;51.146;17.162;2023-04-26T06:34:54;99942.40;;;6.29;71.93
38806;BME280;25635;51.146;17.162;2023-04-26T07:09:42;99932.98;;;8.14;69.17
38806;BME280;25635;51.146;17.162;2023-04-26T07:33:57;99939.74;;;8.73;63.75
38806;BME280;25635;51.146;17.162;2023-04-26T10:05:38;99971.96;;;11.55;48.91
38806;BME280;25635;51.146;17.162;2023-04-26T10:36:00;99991.61;;;10.71;48.53
38806;BME280;25635;51.146;17.162;2023-04-26T10:43:33;99981.62;;;10.76;50.48
38806;BME280;25635;51.146;17.162;2023-04-26T11:39:52;99978.14;;;12.71;47.85
38806;BME280;25635;51.146;17.162;2023-04-26T12:34:30;99991.79;;;12.62;45.56
38806;BME280;25635;51.146;17.162;2023-04-26T12:38:59;99996.45;;;12.46;45.22
38806;BME280;25635;51.146;17.162;2023-04-26T12:48:42;100005.55;;;11.97;45.93
38806;BME280;25635;51.146;17.162;2023-04-26T13:31:31;100011.04;;;11.34;46.50
38806;BME280;25635;51.146;17.162;2023-04-26T13:57:17;100030.60;;;10.61;47.81
38806;BME280;25635;51.146;17.162;2023-04-26T14:04:40;100031.20;;;10.37;47.57
38806;BME280;25635;51.146;17.162;2023-04-26T15:59:10;100080.48;;;10.18;51.48
38806;BME280;25635;51.146;17.162;2023-04-26T16:24:07;100084.42;;;9.78;51.62
38806;BME280;25635;51.146;17.162;2023-04-26T16:26:34;100087.06;;;9.75;52.24
38806;BME280;25635;51.146;17.162;2023-04-26T16:29:01;100088.62;;;9.74;52.32
38806;BME280;25635;51.146;17.162;2023-04-26T16:31:30;100088.99;;;9.72;52.41
38806;BME280;25635;51.146;17.162;2023-04-26T16:33:57;100093.02;;;9.69;52.50
38806;BME280;25635;51.146;17.162;2023-04-26T16:36:24;100092.84;;;9.69;52.74
38806;BME280;25635;51.146;17.162;2023-04-26T16:38:53;100095.64;;;9.67;52.22
38806;BME280;25635;51.146;17.162;2023-04-26T16:41:20;100096.90;;;9.60;52.45
38806;BME280;25635;51.146;17.162;2023-04-26T16:43:49;100096.38;;;9.58;52.37
38806;BME280;25635;51.146;17.162;2023-04-26T16:46:25;100100.21;;;9.58;52.52
38806;BME280;25635;51.146;17.162;2023-04-26T16:48:55;100104.42;;;9.51;51.96
38806;BME280;25635;51.146;17.162;2023-04-26T16:51:22;100106.89;;;9.46;52.60
38806;BME280;25635;51.146;17.162;2023-04-26T16:53:48;100108.46;;;9.45;52.21
38806;BME280;25635;51.146;17.162;2023-04-26T16:56:15;100108.65;;;9.42;52.33
38806;BME280;25635;51.146;17.162;2023-04-26T16:58:42;100107.63;;;9.37;52.09
38806;BME280;25635;51.146;17.162;2023-04-26T17:01:08;100106.78;;;9.31;51.84
38806;BME280;25635;51.146;17.162;2023-04-26T17:03:35;100115.33;;;9.24;51.99
38806;BME280;25635;51.146;17.162;2023-04-26T17:06:02;100116.04;;;9.20;51.99
38806;BME280;25635;51.146;17.162;2023-04-26T17:08:29;100116.42;;;9.16;51.84
38806;BME280;25635;51.146;17.162;2023-04-26T17:10:56;100122.02;;;9.09;51.86
38806;BME280;25635;51.146;17.162;2023-04-26T17:13:23;100127.05;;;9.04;52.04
38806;BME280;25635;51.146;17.162;2023-04-26T17:15:54;100137.67;;;8.99;52.39
38806;BME280;25635;51.146;17.162;2023-04-26T17:18:20;100143.44;;;8.93;52.61
38806;BME280;25635;51.146;17.162;2023-04-26T17:20:47;100145.18;;;8.84;52.74
38806;BME280;25635;51.146;17.162;2023-04-26T17:23:18;100149.89;;;8.75;53.19
38806;BME280;25635;51.146;17.162;2023-04-26T17:25:45;100152.50;;;8.65;53.17
38806;BME280;25635;51.146;17.162;2023-04-26T17:28:12;100157.21;;;8.52;53.40
38806;BME280;25635;51.146;17.162;2023-04-26T17:30:39;100159.98;;;8.43;53.59
38806;BME280;25635;51.146;17.162;2023-04-26T17:33:06;100158.39;;;8.32;53.52
38806;BME280;25635;51.146;17.162;2023-04-26T17:35:33;100163.59;;;8.22;53.54
38806;BME280;25635;51.146;17.162;2023-04-26T17:37:59;100166.70;;;8.11;53.30
38806;BME280;25635;51.146;17.162;2023-04-26T17:40:26;100160.27;;;8.05;53.65
38806;BME280;25635;51.146;17.162;2023-04-26T17:42:52;100158.52;;;8.01;53.86
38806;BME280;25635;51.146;17.162;2023-04-26T17:45:19;100159.21;;;7.96;53.62
38806;BME280;25635;51.146;17.162;2023-04-26T17:47:46;100162.48;;;7.90;53.84
38806;BME280;25635;51.146;17.162;2023-04-26T17:50:12;100163.70;;;7.84;53.80
38806;BME280;25635;51.146;17.162;2023-04-26T17:52:40;100164.04;;;7.78;54.01
38806;BME280;25635;51.146;17.162;2023-04-26T17:55:07;100163.33;;;7.74;54.11
38806;BME280;25635;51.146;17.162;2023-04-26T17:57:35;100163.14;;;7.68;54.40
38806;BME280;25635;51.146;17.162;2023-04-26T18:00:03;100166.07;;;7.62;54.49
38806;BME280;25635;51.146;17.162;2023-04-26T18:02:32;100163.45;;;7.56;54.71
38806;BME280;25635;51.146;17.162;2023-04-26T18:04:59;100162.20;;;7.52;54.98
38806;BME280;25635;51.146;17.162;2023-04-26T18:07:26;100164.79;;;7.47;55.02
38806;BME280;25635;51.146;17.162;2023-04-26T18:09:52;100166.84;;;7.39;55.18
38806;BME280;25635;51.146;17.162;2023-04-26T18:12:19;100168.04;;;7.33;55.34
38806;BME280;25635;51.146;17.162;2023-04-26T18:14:45;100171.30;;;7.28;55.68
38806;BME280;25635;51.146;17.162;2023-04-26T18:17:13;100175.42;;;7.22;55.58
38806;BME280;25635;51.146;17.162;2023-04-26T18:19:42;100178.86;;;7.14;55.58
38806;BME280;25635;51.146;17.162;2023-04-26T18:22:09;100178.46;;;7.05;55.88
38806;BME280;25635;51.146;17.162;2023-04-26T18:24:36;100177.70;;;6.96;56.10
38806;BME280;25635;51.146;17.162;2023-04-26T18:27:03;100175.73;;;6.86;56.23
38806;BME280;25635;51.146;17.162;2023-04-26T18:29:30;100183.48;;;6.78;56.42
38806;BME280;25635;51.146;17.162;2023-04-26T18:31:56;100185.84;;;6.67;56.49
38806;BME280;25635;51.146;17.162;2023-04-26T18:34:23;100185.58;;;6.58;56.78
38806;BME280;25635;51.146;17.162;2023-04-26T18:36:51;100185.16;;;6.49;56.71
38806;BME280;25635;51.146;17.162;2023-04-26T18:39:17;100188.36;;;6.39;57.08
38806;BME280;25635;51.146;17.162;2023-04-26T18:41:44;100191.41;;;6.31;57.62
38806;BME280;25635;51.146;17.162;2023-04-26T18:44:11;100191.69;;;6.24;58.11
38806;BME280;25635;51.146;17.162;2023-04-26T18:46:41;100193.34;;;6.17;58.26
38806;BME280;25635;51.146;17.162;2023-04-26T18:49:08;100198.45;;;6.08;58.13
38806;BME280;25635;51.146;17.162;2023-04-26T18:51:35;100196.11;;;5.99;58.51
38806;BME280;25635;51.146;17.162;2023-04-26T18:54:02;100197.38;;;5.91;59.08
38806;BME280;25635;51.146;17.162;2023-04-26T18:56:29;100205.79;;;5.85;59.10
38806;BME280;25635;51.146;17.162;2023-04-26T18:58:56;100210.05;;;5.79;59.11
38806;BME280;25635;51.146;17.162;2023-04-26T19:01:23;100207.90;;;5.73;59.53
38806;BME280;25635;51.146;17.162;2023-04-26T19:03:50;100208.35;;;5.67;59.36
38806;BME280;25635;51.146;17.162;2023-04-26T19:06:16;100208.30;;;5.63;59.72
38806;BME280;25635;51.146;17.162;2023-04-26T19:08:45;100212.06;;;5.59;59.92
38806;BME280;25635;51.146;17.162;2023-04-26T19:11:12;100213.23;;;5.55;60.15
38806;BME280;25635;51.146;17.162;2023-04-26T19:13:39;100216.80;;;5.51;60.28
38806;BME280;25635;51.146;17.162;2023-04-26T19:16:07;100220.23;;;5.48;60.40
38806;BME280;25635;51.146;17.162;2023-04-26T19:18:34;100221.21;;;5.44;60.73
38806;BME280;25635;51.146;17.162;2023-04-26T19:21:09;100219.62;;;5.42;60.81
38806;BME280;25635;51.146;17.162;2023-04-26T19:23:36;100222.70;;;5.39;61.11
38806;BME280;25635;51.146;17.162;2023-04-26T19:26:05;100224.58;;;5.37;61.32
38806;BME280;25635;51.146;17.162;2023-04-26T19:28:32;100225.90;;;5.33;61.28
38806;BME280;25635;51.146;17.162;2023-04-26T19:30:59;100226.05;;;5.31;61.30
38806;BME280;25635;51.146;17.162;2023-04-26T19:33:27;100226.16;;;5.27;61.36
38806;BME280;25635;51.146;17.162;2023-04-26T19:35:54;100228.73;;;5.24;61.58
38806;BME280;25635;51.146;17.162;2023-04-26T19:38:23;100229.19;;;5.21;61.62
38806;BME280;25635;51.146;17.162;2023-04-26T19:40:51;100226.89;;;5.17;62.03
38806;BME280;25635;51.146;17.162;2023-04-26T19:43:18;100229.59;;;5.13;61.83
38806;BME280;25635;51.146;17.162;2023-04-26T19:45:45;100228.52;;;5.11;62.00
38806;BME280;25635;51.146;17.162;2023-04-26T19:48:12;100227.99;;;5.10;62.26
38806;BME280;25635;51.146;17.162;2023-04-26T19:50:43;100230.39;;;5.08;62.50
38806;BME280;25635;51.146;17.162;2023-04-26T19:53:11;100227.59;;;5.06;62.80
38806;BME280;25635;51.146;17.162;2023-04-26T19:55:39;100227.21;;;5.04;62.64
38806;BME280;25635;51.146;17.162;2023-04-26T19:58:06;100229.28;;;5.03;62.69
38806;BME280;25635;51.146;17.162;2023-04-26T20:00:33;100229.32;;;5.06;62.93
38806;BME280;25635;51.146;17.162;2023-04-26T20:03:04;100232.15;;;5.10;62.96
38806;BME280;25635;51.146;17.162;2023-04-26T20:05:31;100232.73;;;5.14;62.92
38806;BME280;25635;51.146;17.162;2023-04-26T20:07:57;100228.30;;;5.19;62.92
38806;BME280;25635;51.146;17.162;2023-04-26T20:10:24;100231.60;;;5.21;63.23
38806;BME280;25635;51.146;17.162;2023-04-26T20:12:51;100230.96;;;5.24;63.19
38806;BME280;25635;51.146;17.162;2023-04-26T20:15:18;100230.98;;;5.25;63.21
38806;BME280;25635;51.146;17.162;2023-04-26T20:17:45;100230.13;;;5.26;63.12
38806;BME280;25635;51.146;17.162;2023-04-26T20:20:12;100231.85;;;5.26;63.23
38806;BME280;25635;51.146;17.162;2023-04-26T20:22:39;100233.74;;;5.25;63.47
38806;BME280;25635;51.146;17.162;2023-04-26T20:25:07;100234.95;;;5.24;63.54
38806;BME280;25635;51.146;17.162;2023-04-26T20:27:35;100235.78;;;5.22;63.61
38806;BME280;25635;51.146;17.162;2023-04-26T20:30:02;100235.77;;;5.22;63.74
38806;BME280;25635;51.146;17.162;2023-04-26T20:32:29;100241.49;;;5.23;63.81
38806;BME280;25635;51.146;17.162;2023-04-26T20:34:56;100248.04;;;5.21;63.80
38806;BME280;25635;51.146;17.162;2023-04-26T20:37:22;100249.06;;;5.20;63.82
38806;BME280;25635;51.146;17.162;2023-04-26T20:39:49;100246.44;;;5.18;63.66
38806;BME280;25635;51.146;17.162;2023-04-26T20:42:16;100248.98;;;5.15;63.96
38806;BME280;25635;51.146;17.162;2023-04-26T20:44:42;100246.88;;;5.13;64.12
38806;BME280;25635;51.146;17.162;2023-04-26T20:47:09;100248.05;;;5.11;64.18
38806;BME280;25635;51.146;17.162;2023-04-26T20:49:36;100247.63;;;5.05;64.15
38806;BME280;25635;51.146;17.162;2023-04-26T20:52:02;100246.70;;;5.01;64.18
38806;BME280;25635;51.146;17.162;2023-04-26T20:54:29;100250.61;;;4.97;64.56
38806;BME280;25635;51.146;17.162;2023-04-26T20:56:57;100248.67;;;4.95;64.60
38806;BME280;25635;51.146;17.162;2023-04-26T20:59:24;100249.84;;;4.92;64.49
38806;BME280;25635;51.146;17.162;2023-04-26T21:01:52;100251.34;;;4.88;64.70
38806;BME280;25635;51.146;17.162;2023-04-26T21:04:19;100251.95;;;4.84;64.80
38806;BME280;25635;51.146;17.162;2023-04-26T21:06:46;100250.30;;;4.78;64.86
38806;BME280;25635;51.146;17.162;2023-04-26T21:09:12;100257.14;;;4.73;65.03
38806;BME280;25635;51.146;17.162;2023-04-26T21:11:39;100257.06;;;4.68;64.94
38806;BME280;25635;51.146;17.162;2023-04-26T21:14:05;100253.88;;;4.64;65.08
38806;BME280;25635;51.146;17.162;2023-04-26T21:16:32;100261.05;;;4.59;65.16
38806;BME280;25635;51.146;17.162;2023-04-26T21:18:59;100261.47;;;4.53;65.28
38806;BME280;25635;51.146;17.162;2023-04-26T21:21:25;100257.53;;;4.46;65.50
38806;BME280;25635;51.146;17.162;2023-04-26T21:23:54;100264.83;;;4.38;65.44
38806;BME280;25635;51.146;17.162;2023-04-26T21:26:20;100260.55;;;4.31;65.89
38806;BME280;25635;51.146;17.162;2023-04-26T21:28:47;100263.73;;;4.26;65.85
38806;BME280;25635;51.146;17.162;2023-04-26T21:31:14;100264.83;;;4.20;65.77
38806;BME280;25635;51.146;17.162;2023-04-26T21:33:40;100268.88;;;4.15;66.08
38806;BME280;25635;51.146;17.162;2023-04-26T21:36:07;100273.16;;;4.13;66.13
38806;BME280;25635;51.146;17.162;2023-04-26T21:38:34;100274.36;;;4.14;66.38
38806;BME280;25635;51.146;17.162;2023-04-26T21:41:00;100274.40;;;4.14;66.14
38806;BME280;25635;51.146;17.162;2023-04-26T21:43:27;100275.40;;;4.13;66.24
38806;BME280;25635;51.146;17.162;2023-04-26T21:45:54;100277.97;;;4.12;66.66
38806;BME280;25635;51.146;17.162;2023-04-26T21:48:21;100277.60;;;4.11;66.64
38806;BME280;25635;51.146;17.162;2023-04-26T21:50:48;100278.95;;;4.09;66.49
38806;BME280;25635;51.146;17.162;2023-04-26T21:53:16;100283.52;;;4.04;66.67
38806;BME280;25635;51.146;17.162;2023-04-26T21:55:43;100283.45;;;4.01;66.60
38806;BME280;25635;51.146;17.162;2023-04-26T21:58:09;100287.20;;;3.99;66.82
38806;BME280;25635;51.146;17.162;2023-04-26T22:00:36;100287.46;;;3.95;66.90
38806;BME280;25635;51.146;17.162;2023-04-26T22:03:03;100289.98;;;3.91;66.91
38806;BME280;25635;51.146;17.162;2023-04-26T22:05:29;100295.33;;;3.92;67.07
38806;BME280;25635;51.146;17.162;2023-04-26T22:07:56;100294.07;;;3.89;67.09
38806;BME280;25635;51.146;17.162;2023-04-26T22:10:23;100294.20;;;3.87;67.36
38806;BME280;25635;51.146;17.162;2023-04-26T22:12:49;100296.96;;;3.87;67.25
38806;BME280;25635;51.146;17.162;2023-04-26T22:15:16;100301.71;;;3.83;67.23
38806;BME280;25635;51.146;17.162;2023-04-26T22:17:43;100302.88;;;3.81;67.42
38806;BME280;25635;51.146;17.162;2023-04-26T22:20:10;100304.61;;;3.81;67.50
38806;BME280;25635;51.146;17.162;2023-04-26T22:22:37;100304.43;;;3.81;67.53
38806;BME280;25635;51.146;17.162;2023-04-26T22:25:05;100305.95;;;3.79;67.70
38806;BME280;25635;51.146;17.162;2023-04-26T22:27:31;100306.77;;;3.77;67.66
38806;BME280;25635;51.146;17.162;2023-04-26T22:29:58;100307.18;;;3.73;67.87
38806;BME280;25635;51.146;17.162;2023-04-26T22:32:25;100311.97;;;3.71;68.01
38806;BME280;25635;51.146;17.162;2023-04-26T22:34:51;100309.67;;;3.68;68.19
38806;BME280;25635;51.146;17.162;2023-04-26T22:37:19;100309.27;;;3.65;68.13
38806;BME280;25635;51.146;17.162;2023-04-26T22:39:46;100310.75;;;3.62;68.29
38806;BME280;25635;51.146;17.162;2023-04-26T22:42:12;100307.20;;;3.57;68.47
38806;BME280;25635;51.146;17.162;2023-04-26T22:44:39;100311.45;;;3.54;68.44
38806;BME280;25635;51.146;17.162;2023-04-26T22:47:06;100311.70;;;3.51;68.46
38806;BME280;25635;51.146;17.162;2023-04-26T22:49:33;100312.99;;;3.47;68.60
38806;BME280;25635;51.146;17.162;2023-04-26T22:51:59;100314.34;;;3.45;68.73
38806;BME280;25635;51.146;17.162;2023-04-26T22:54:27;100312.23;;;3.43;68.75
38806;BME280;25635;51.146;17.162;2023-04-26T22:56:53;100314.76;;;3.41;68.77
38806;BME280;25635;51.146;17.162;2023-04-26T22:59:20;100317.83;;;3.39;69.00
38806;BME280;25635;51.146;17.162;2023-04-26T23:01:46;100314.34;;;3.37;69.02
38806;BME280;25635;51.146;17.162;2023-04-26T23:04:13;100316.14;;;3.33;68.97
38806;BME280;25635;51.146;17.162;2023-04-26T23:06:40;100317.81;;;3.31;69.05
38806;BME280;25635;51.146;17.162;2023-04-26T23:09:06;100316.48;;;3.26;69.40
38806;BME280;25635;51.146;17.162;2023-04-26T23:11:34;100321.80;;;3.24;69.40
38806;BME280;25635;51.146;17.162;2023-04-26T23:14:00;100322.86;;;3.19;69.32
38806;BME280;25635;51.146;17.162;2023-04-26T23:16:28;100324.45;;;3.13;69.36
38806;BME280;25635;51.146;17.162;2023-04-26T23:18:54;100327.08;;;3.08;69.64
38806;BME280;25635;51.146;17.162;2023-04-26T23:21:21;100330.40;;;3.02;69.74
38806;BME280;25635;51.146;17.162;2023-04-26T23:23:47;100331.55;;;3.00;69.84
38806;BME280;25635;51.146;17.162;2023-04-26T23:26:14;100330.61;;;2.98;70.09
38806;BME280;25635;51.146;17.162;2023-04-26T23:28:40;100328.69;;;2.96;69.98
38806;BME280;25635;51.146;17.162;2023-04-26T23:31:07;100327.94;;;2.93;70.08
38806;BME280;25635;51.146;17.162;2023-04-26T23:33:34;100331.02;;;2.93;70.18
38806;BME280;25635;51.146;17.162;2023-04-26T23:36:00;100332.88;;;2.92;70.39
38806;BME280;25635;51.146;17.162;2023-04-26T23:38:27;100337.64;;;2.89;70.34
38806;BME280;25635;51.146;17.162;2023-04-26T23:40:54;100335.36;;;2.88;70.50
38806;BME280;25635;51.146;17.162;2023-04-26T23:43:20;100336.73;;;2.87;70.86
38806;BME280;25635;51.146;17.162;2023-04-26T23:45:47;100336.73;;;2.87;70.65
38806;BME280;25635;51.146;17.162;2023-04-26T23:48:15;100335.30;;;2.85;70.58
38806;BME280;25635;51.146;17.162;2023-04-26T23:50:42;100336.58;;;2.81;70.73
38806;BME280;25635;51.146;17.162;2023-04-26T23:53:09;100341.52;;;2.79;70.79
38806;BME280;25635;51.146;17.162;2023-04-26T23:55:37;100342.20;;;2.78;70.79
38806;BME280;25635;51.146;17.162;2023-04-26T23:58:04;100339.40;;;2.77;70.76
